Airfield :
LOGIN :

Register | Disclaimer

   EN    FR    IT 

 










Legend :    VFR   Marginal VFR   IFR   Intensive IFR   Very Intensive IFR
Visi :
Ceiling :
>= 8 km
>= 3000ft
5 to 8 km
1000 to 3000 ft
1500m to 5 km
500 to 1000 ft
800 to 1500m
200 to 500 ft
< 800m
< 200 ft
Symbols :   Thunderstorms  Fog  Heavy snow  Heavy precipitations  Wind > 20 kt
SIGMETs :     Misc.  Thunderstorms  Icing  Turbulence  Mountain Waves  Volcanic Ashes






- Airport Elevation : 86 ft
- IATA code : HAU


ENHD - Haugesund

CURRENT METAR :
  • 220320Z AUTO 15007KT 9999 NCD 11/09 Q1007

EXPIRED METARs :
  • 220250Z AUTO 14008KT 9999 NCD 11/09 Q1008
  • 220220Z AUTO 15006KT 9999 FEW018/// 11/09 Q1008
  • 220150Z AUTO 20009KT 9999 SCT018/// BKN028/// 13/10 Q1008
  • 220120Z AUTO 19007KT 160V230 9999 SCT017/// 13/10 Q1008
  • 220050Z AUTO 17006KT 130V200 9999 SCT017/// BKN028/// 13/09 Q1009

TAF TAF ENHD
Valid from the 22 at 03:00 until the 22 at 12:00 UTC


220200Z 2203/2212 18012KT 9999 FEW012 BKN025
TEMPO 2208/2212 18018G28KT BKN012



MET'MAP, your aeronautical weather chart ! - Copyright ORBIFLY December 2007 - Disclaimer

ORBIFLY MET'MAP TEAM :

Programming & Development : Alexandra Zaïnal
Concept & original design : Baudouin d'Aumeries
Assistance for programming : Marc-Olivier Méhu
Technical & hardware support : Manuel Goepfert

Contact : metmap@orbifly.com




SOURCES & CREDITS :

   NOAA